createdAt,value
2022-09-21T00:02:20.954Z,100.00
2022-09-21T00:04:51.103Z,100.00
2022-09-21T00:07:20.643Z,100.00
2022-09-21T00:09:50.373Z,100.00
2022-09-21T00:12:20.674Z,100.00
2022-09-21T00:14:50.477Z,100.00
2022-09-21T00:17:19.995Z,100.00
2022-09-21T00:19:49.692Z,100.00
2022-09-21T00:22:19.287Z,100.00
2022-09-21T00:24:48.863Z,100.00
2022-09-21T00:27:18.423Z,100.00
2022-09-21T00:29:48.815Z,100.00
2022-09-21T00:32:18.387Z,100.00
2022-09-21T00:34:47.905Z,100.00
2022-09-21T00:37:17.481Z,100.00
2022-09-21T00:39:47.291Z,100.00
2022-09-21T00:42:21.638Z,100.00
2022-09-21T00:44:51.129Z,100.00
2022-09-21T00:47:35.418Z,100.00
2022-09-21T00:50:10.911Z,100.00
2022-09-21T00:52:46.195Z,100.00
2022-09-21T00:55:24.247Z,100.00
2022-09-21T00:57:56.573Z,100.00
2022-09-21T01:00:26.274Z,100.00
2022-09-21T01:02:58.943Z,100.00
2022-09-21T01:05:28.282Z,100.00
2022-09-21T01:07:59.951Z,100.00
2022-09-21T01:10:32.787Z,100.00
2022-09-21T01:13:14.017Z,100.00
2022-09-21T01:16:09.206Z,100.00
2022-09-21T01:18:56.751Z,100.00
2022-09-21T01:21:38.390Z,100.00
2022-09-21T01:24:27.445Z,100.00
2022-09-21T01:27:12.014Z,100.00
2022-09-21T01:29:47.907Z,100.00
2022-09-21T01:32:40.751Z,100.00
2022-09-21T01:35:21.801Z,100.00
2022-09-21T01:37:58.363Z,100.00
2022-09-21T01:40:35.322Z,100.00
2022-09-21T01:43:03.740Z,100.00
2022-09-21T01:45:36.443Z,100.00
2022-09-21T01:48:08.444Z,100.00
2022-09-21T01:50:41.028Z,100.00
2022-09-21T01:53:13.564Z,100.00
2022-09-21T01:55:46.412Z,100.00
2022-09-21T01:58:25.085Z,100.00
2022-09-21T02:00:56.585Z,100.00
2022-09-21T02:03:47.226Z,100.00
2022-09-21T02:06:18.089Z,100.00
2022-09-21T02:08:47.782Z,100.00
2022-09-21T02:11:17.190Z,100.00
2022-09-21T02:13:48.039Z,100.00
2022-09-21T02:16:32.836Z,100.00
2022-09-21T02:19:17.867Z,100.00
2022-09-21T02:21:59.526Z,100.00
2022-09-21T02:24:47.275Z,100.00
2022-09-21T02:27:43.729Z,100.00
2022-09-21T02:30:18.941Z,100.00
2022-09-21T02:33:13.478Z,100.00
2022-09-21T02:36:10.101Z,100.00
2022-09-21T02:38:44.205Z,100.00
2022-09-21T02:41:19.975Z,100.00
2022-09-21T02:43:51.800Z,100.00
2022-09-21T02:46:24.289Z,100.00
2022-09-21T02:48:56.699Z,100.00
2022-09-21T02:51:44.411Z,100.00
2022-09-21T02:54:16.197Z,100.00
2022-09-21T02:56:47.448Z,100.00
2022-09-21T02:59:17.367Z,100.00
2022-09-21T03:01:46.898Z,100.00
2022-09-21T03:04:19.446Z,100.00
2022-09-21T03:06:48.649Z,100.00
2022-09-21T03:09:18.615Z,100.00
2022-09-21T03:11:48.156Z,100.00
2022-09-21T03:14:20.735Z,100.00
2022-09-21T03:16:49.654Z,100.00
2022-09-21T03:19:21.392Z,100.00
2022-09-21T03:21:50.773Z,100.00
2022-09-21T03:24:21.636Z,100.00
2022-09-21T03:26:50.953Z,100.00
2022-09-21T03:29:22.524Z,100.00
2022-09-21T03:31:53.403Z,100.00
2022-09-21T03:34:22.983Z,100.00
2022-09-21T03:36:52.324Z,100.00
2022-09-21T03:39:23.838Z,100.00
2022-09-21T03:41:54.813Z,100.00
2022-09-21T03:44:25.772Z,100.00
2022-09-21T03:46:55.379Z,100.00
2022-09-21T03:49:24.986Z,100.00
2022-09-21T03:51:56.101Z,100.00
2022-09-21T03:54:25.958Z,100.00
2022-09-21T03:56:55.202Z,100.00
2022-09-21T03:59:26.207Z,100.00
2022-09-21T04:01:55.559Z,100.00
2022-09-21T04:04:26.479Z,100.00
2022-09-21T04:06:55.788Z,100.00
2022-09-21T04:09:24.983Z,100.00
2022-09-21T04:11:54.329Z,100.00
2022-09-21T04:14:23.538Z,100.00
2022-09-21T04:16:53.131Z,100.00
2022-09-21T04:19:22.548Z,100.00
2022-09-21T04:21:52.210Z,100.00
2022-09-21T04:24:21.468Z,100.00
2022-09-21T04:26:50.758Z,100.00
2022-09-21T04:29:20.156Z,100.00
2022-09-21T04:31:49.522Z,100.00
2022-09-21T04:34:18.817Z,100.00
2022-09-21T04:36:48.053Z,100.00
2022-09-21T04:39:17.365Z,100.00
2022-09-21T04:41:46.626Z,100.00
2022-09-21T04:44:16.139Z,100.00
2022-09-21T04:46:45.578Z,100.00
2022-09-21T04:49:14.819Z,100.00
2022-09-21T04:51:44.141Z,100.00
2022-09-21T04:54:14.005Z,100.00
2022-09-21T04:56:43.320Z,100.00
2022-09-21T04:59:12.728Z,100.00
2022-09-21T05:01:42.107Z,100.00
2022-09-21T05:04:11.379Z,100.00
2022-09-21T05:06:40.806Z,100.00
2022-09-21T05:09:28.673Z,100.00
2022-09-21T05:11:57.996Z,100.00
2022-09-21T05:14:27.225Z,100.00
2022-09-21T05:16:56.678Z,100.00
2022-09-21T05:19:25.893Z,100.00
2022-09-21T05:21:55.213Z,100.00
2022-09-21T05:24:24.703Z,100.00
2022-09-21T05:26:53.980Z,100.00
2022-09-21T05:29:23.828Z,100.00
2022-09-21T05:32:12.791Z,100.00
2022-09-21T05:35:09.298Z,100.00
2022-09-21T05:37:50.929Z,100.00
2022-09-21T05:40:20.875Z,100.00
2022-09-21T05:42:50.592Z,100.00
2022-09-21T05:45:21.836Z,100.00
2022-09-21T05:48:06.446Z,100.00
2022-09-21T05:50:59.807Z,100.00
2022-09-21T05:53:59.634Z,100.00
2022-09-21T05:56:49.819Z,100.00
2022-09-21T05:59:25.262Z,100.00
2022-09-21T06:02:03.772Z,100.00
2022-09-21T06:04:33.652Z,100.00
2022-09-21T06:07:04.645Z,100.00
2022-09-21T06:09:33.944Z,100.00
2022-09-21T06:12:04.629Z,100.00
2022-09-21T06:14:33.928Z,100.00
2022-09-21T06:17:04.141Z,100.00
2022-09-21T06:19:33.904Z,100.00
2022-09-21T06:22:03.258Z,100.00
2022-09-21T06:24:32.489Z,100.00
2022-09-21T06:27:01.844Z,100.00
2022-09-21T06:29:31.093Z,100.00
2022-09-21T06:32:00.455Z,100.00
2022-09-21T06:34:29.828Z,100.00
2022-09-21T06:36:59.401Z,100.00
2022-09-21T06:39:28.636Z,100.00
2022-09-21T06:41:57.868Z,100.00
2022-09-21T06:44:27.244Z,100.00
2022-09-21T06:46:56.573Z,100.00
2022-09-21T06:49:27.633Z,100.00
2022-09-21T06:51:57.074Z,100.00
2022-09-21T06:54:26.924Z,100.00
2022-09-21T06:56:59.936Z,100.00
2022-09-21T06:59:28.734Z,100.00
2022-09-21T07:01:58.757Z,100.00
2022-09-21T07:04:29.597Z,100.00
2022-09-21T07:07:02.307Z,100.00
2022-09-21T07:12:01.333Z,100.00
2022-09-21T07:14:30.765Z,100.00
2022-09-21T07:17:00.040Z,100.00
2022-09-21T07:19:29.413Z,100.00
2022-09-21T07:21:58.699Z,100.00
2022-09-21T07:24:28.145Z,100.00
2022-09-21T07:26:57.452Z,99.92
2022-09-21T07:29:26.864Z,98.48
2022-09-21T07:31:56.177Z,98.80
2022-09-21T07:34:25.395Z,98.11
2022-09-21T07:36:54.780Z,97.06
2022-09-21T07:39:24.043Z,97.50
2022-09-21T07:41:53.359Z,96.77
2022-09-21T07:44:22.773Z,96.07
2022-09-21T07:46:52.251Z,93.50
2022-09-21T07:49:21.551Z,92.84
2022-09-21T07:51:50.789Z,94.39
2022-09-21T07:54:19.982Z,95.12
2022-09-21T07:56:50.948Z,95.30
2022-09-21T07:59:20.490Z,94.47
2022-09-21T08:01:50.047Z,92.89
2022-09-21T08:04:19.469Z,92.66
2022-09-21T08:06:48.719Z,90.83
2022-09-21T08:09:17.925Z,91.46
2022-09-21T08:11:47.161Z,90.23
2022-09-21T08:14:20.179Z,88.52
2022-09-21T08:16:48.659Z,87.78
2022-09-21T08:19:17.981Z,87.05
2022-09-21T08:21:56.931Z,87.46
2022-09-21T08:24:22.375Z,87.90
2022-09-21T08:26:52.393Z,84.67
2022-09-21T08:29:21.708Z,83.37
2022-09-21T08:31:51.042Z,83.96
2022-09-21T08:34:20.683Z,82.36
2022-09-21T08:36:55.020Z,84.10
2022-09-21T08:39:21.060Z,79.64
2022-09-21T08:42:05.838Z,76.43
2022-09-21T08:44:40.599Z,79.58
2022-09-21T08:47:31.272Z,75.78
2022-09-21T08:50:01.280Z,76.62
2022-09-21T08:52:31.075Z,72.58
2022-09-21T08:55:06.334Z,71.29
2022-09-21T08:57:36.103Z,68.89
2022-09-21T09:00:08.702Z,63.98
2022-09-21T09:02:53.029Z,55.02
2022-09-21T09:05:31.336Z,49.35
2022-09-21T09:08:20.410Z,47.63
2022-09-21T09:11:01.733Z,44.95
2022-09-21T09:13:58.535Z,43.01
2022-09-21T09:16:33.635Z,42.33
2022-09-21T09:19:22.743Z,40.29
2022-09-21T09:21:52.067Z,36.54
2022-09-21T09:24:30.275Z,35.93
2022-09-21T09:27:05.169Z,37.01
2022-09-21T09:30:09.230Z,38.31
2022-09-21T09:32:44.774Z,37.75
2022-09-21T09:35:22.776Z,36.15
2022-09-21T09:37:52.934Z,35.83
2022-09-21T09:40:28.966Z,36.18
2022-09-21T09:43:07.275Z,34.62
2022-09-21T09:45:45.609Z,34.58
2022-09-21T09:48:30.033Z,37.15
2022-09-21T09:50:59.410Z,39.10
2022-09-21T09:53:28.832Z,37.08
2022-09-21T09:56:00.198Z,37.35
2022-09-21T09:58:38.507Z,36.88
2022-09-21T10:01:07.988Z,35.54
2022-09-21T10:03:38.050Z,34.46
2022-09-21T10:06:09.116Z,36.04
2022-09-21T10:08:43.177Z,36.49
2022-09-21T10:11:15.658Z,35.79
2022-09-21T10:13:47.294Z,34.64
2022-09-21T10:16:22.719Z,37.07
2022-09-21T10:19:01.646Z,34.78
2022-09-21T10:21:45.806Z,36.22
2022-09-21T10:24:38.923Z,36.93
2022-09-21T10:27:15.810Z,34.58
2022-09-21T10:29:49.443Z,35.06
2022-09-21T10:32:29.186Z,32.42
2022-09-21T10:35:07.901Z,33.48
2022-09-21T10:37:41.000Z,33.54
2022-09-21T10:40:22.872Z,39.16
2022-09-21T10:42:52.839Z,43.45
2022-09-21T10:45:27.731Z,43.49
2022-09-21T10:48:12.240Z,38.11
2022-09-21T10:50:49.261Z,39.39
2022-09-21T10:53:29.006Z,42.35
2022-09-21T10:56:17.792Z,43.80
2022-09-21T10:58:33.479Z,42.14
2022-09-21T11:01:23.395Z,36.31
2022-09-21T11:04:01.723Z,32.83
2022-09-21T11:06:40.167Z,33.44
2022-09-21T11:09:26.990Z,31.89
2022-09-21T11:12:08.769Z,31.69
2022-09-21T11:15:03.694Z,31.28
2022-09-21T11:17:53.000Z,31.70
2022-09-21T11:20:47.882Z,32.41
2022-09-21T11:23:32.251Z,31.97
2022-09-21T11:26:16.718Z,31.46
2022-09-21T11:29:00.969Z,31.58
2022-09-21T11:31:51.438Z,29.58
2022-09-21T11:34:36.080Z,28.15
2022-09-21T11:37:26.450Z,32.59
2022-09-21T11:40:10.484Z,30.13
2022-09-21T11:43:07.131Z,30.59
2022-09-21T11:46:04.243Z,30.65
2022-09-21T11:48:40.202Z,28.88
2022-09-21T11:51:18.572Z,29.66
2022-09-21T11:53:54.360Z,28.29
2022-09-21T11:56:56.939Z,31.21
2022-09-21T12:00:00.417Z,30.32
2022-09-21T12:02:40.698Z,33.79
2022-09-21T12:05:48.384Z,32.02
2022-09-21T12:08:40.222Z,31.02
2022-09-21T12:11:39.972Z,32.12
2022-09-21T12:14:18.186Z,33.78
2022-09-21T12:16:53.216Z,33.03
2022-09-21T12:19:34.309Z,32.90
2022-09-21T12:22:17.348Z,34.90
2022-09-21T12:24:48.680Z,36.58
2022-09-21T12:27:21.187Z,36.50
2022-09-21T12:29:53.910Z,38.05
2022-09-21T12:32:48.925Z,37.82
2022-09-21T12:35:37.788Z,39.06
2022-09-21T12:41:21.368Z,36.86
2022-09-21T12:43:56.659Z,40.12
2022-09-21T12:46:30.942Z,37.63
2022-09-21T12:49:03.050Z,39.66
2022-09-21T12:51:37.503Z,37.27
2022-09-21T12:54:40.550Z,37.37
2022-09-21T12:58:13.632Z,38.25
2022-09-21T13:00:08.554Z,38.34
2022-09-21T13:02:53.031Z,38.14
2022-09-21T13:05:37.766Z,35.26
2022-09-21T13:08:16.164Z,35.90
2022-09-21T13:10:54.680Z,39.12
2022-09-21T13:13:43.779Z,37.05
2022-09-21T13:16:32.965Z,35.79
2022-09-21T13:19:04.517Z,36.99
2022-09-21T13:21:35.214Z,38.09
2022-09-21T13:24:07.640Z,35.89
2022-09-21T13:26:45.466Z,36.96
2022-09-21T13:29:24.039Z,33.80
2022-09-21T13:31:58.710Z,35.93
2022-09-21T13:34:30.707Z,35.42
2022-09-21T13:37:21.377Z,37.40
2022-09-21T13:39:59.545Z,36.59
2022-09-21T13:42:38.472Z,35.88
2022-09-21T13:45:19.772Z,37.66
2022-09-21T13:47:55.664Z,40.09
2022-09-21T13:50:31.213Z,38.02
2022-09-21T13:53:06.699Z,38.70
2022-09-21T13:55:41.695Z,38.36
2022-09-21T13:58:35.631Z,36.59
2022-09-21T14:01:29.199Z,35.20
2022-09-21T14:03:47.492Z,34.66
2022-09-21T14:06:22.385Z,36.65
2022-09-21T14:08:59.145Z,40.50
2022-09-21T14:11:43.345Z,41.08
2022-09-21T14:14:22.058Z,40.10
2022-09-21T14:16:52.998Z,42.87
2022-09-21T14:19:29.778Z,42.55
2022-09-21T14:22:08.544Z,44.77
2022-09-21T14:24:49.994Z,45.33
2022-09-21T14:27:43.451Z,46.95
2022-09-21T14:30:24.511Z,48.29
2022-09-21T14:33:14.997Z,50.52
2022-09-21T14:35:47.511Z,56.64
2022-09-21T14:38:30.927Z,58.87
2022-09-21T14:41:07.461Z,58.09
2022-09-21T14:43:39.690Z,59.33
2022-09-21T14:46:45.707Z,60.92
2022-09-21T14:49:27.037Z,61.90
2022-09-21T14:52:20.237Z,62.02
2022-09-21T14:54:57.164Z,63.51
2022-09-21T14:57:48.363Z,63.00
2022-09-21T15:00:27.390Z,63.41
2022-09-21T15:03:30.007Z,64.26
2022-09-21T15:06:32.258Z,65.80
2022-09-21T15:09:43.770Z,67.26
2022-09-21T15:12:19.142Z,68.65
2022-09-21T15:14:51.845Z,69.58
2022-09-21T15:17:29.962Z,63.17
2022-09-21T15:20:03.895Z,66.55
2022-09-21T15:22:33.280Z,58.78
2022-09-21T15:25:05.367Z,58.03
2022-09-21T15:27:34.960Z,53.98
2022-09-21T15:30:06.579Z,54.89
2022-09-21T15:32:47.167Z,52.28
2022-09-21T15:35:30.928Z,52.43
2022-09-21T15:38:01.548Z,51.92
2022-09-21T15:40:33.421Z,52.37
2022-09-21T15:43:09.006Z,52.70
2022-09-21T15:45:59.468Z,53.93
2022-09-21T15:48:41.539Z,54.61
2022-09-21T15:51:28.990Z,55.93
2022-09-21T15:54:05.987Z,57.25
2022-09-21T15:56:37.833Z,57.68
2022-09-21T15:59:09.819Z,57.67
2022-09-21T16:01:45.206Z,59.82
2022-09-21T16:04:17.819Z,59.84
2022-09-21T16:06:50.535Z,59.34
2022-09-21T16:09:23.468Z,59.61
2022-09-21T16:11:53.441Z,60.38
2022-09-21T16:14:41.371Z,62.56
2022-09-21T16:17:17.451Z,63.67
2022-09-21T16:19:53.835Z,64.04
2022-09-21T16:22:47.551Z,62.23
2022-09-21T16:25:29.902Z,61.41
2022-09-21T16:28:02.436Z,62.07
2022-09-21T16:30:51.937Z,61.40
2022-09-21T16:33:44.145Z,64.78
2022-09-21T16:36:34.222Z,68.03
2022-09-21T16:39:08.642Z,68.70
2022-09-21T16:41:42.804Z,71.36
2022-09-21T16:44:16.196Z,72.19
2022-09-21T16:46:46.058Z,74.25
2022-09-21T16:49:19.283Z,74.22
2022-09-21T16:51:49.957Z,71.36
2022-09-21T16:54:22.060Z,74.61
2022-09-21T16:56:52.626Z,76.08
2022-09-21T16:59:23.457Z,75.93
2022-09-21T17:01:56.525Z,75.98
2022-09-21T17:04:28.967Z,76.14
2022-09-21T17:06:58.425Z,76.56
2022-09-21T17:09:46.458Z,75.30
2022-09-21T17:12:18.155Z,76.15
2022-09-21T17:14:47.719Z,77.32
2022-09-21T17:17:24.660Z,74.05
2022-09-21T17:19:54.926Z,79.16
2022-09-21T17:22:25.399Z,80.29
2022-09-21T17:24:56.287Z,79.63
2022-09-21T17:27:29.341Z,80.28
2022-09-21T17:30:00.268Z,80.14
2022-09-21T17:32:29.720Z,79.93
2022-09-21T17:35:20.542Z,82.62
2022-09-21T17:37:49.867Z,83.36
2022-09-21T17:40:19.746Z,86.70
2022-09-21T17:42:49.205Z,88.36
2022-09-21T17:45:27.990Z,88.54
2022-09-21T17:47:57.814Z,90.21
2022-09-21T17:50:29.136Z,87.14
2022-09-21T17:53:17.079Z,86.58
2022-09-21T17:55:49.535Z,88.30
2022-09-21T17:58:41.546Z,87.11
2022-09-21T18:01:29.295Z,89.96
2022-09-21T18:03:59.067Z,89.52
2022-09-21T18:06:28.923Z,91.42
2022-09-21T18:08:58.713Z,90.79
2022-09-21T18:11:46.375Z,91.90
2022-09-21T18:14:21.755Z,90.20
2022-09-21T18:17:03.127Z,90.43
2022-09-21T18:19:56.785Z,90.03
2022-09-21T18:22:44.738Z,90.95
2022-09-21T18:25:19.666Z,92.37
2022-09-21T18:27:49.430Z,94.53
2022-09-21T18:30:18.874Z,95.99
2022-09-21T18:33:00.185Z,95.23
2022-09-21T18:35:39.042Z,97.04
2022-09-21T18:38:22.496Z,98.19
2022-09-21T18:41:13.134Z,97.48
2022-09-21T18:43:54.462Z,96.98
2022-09-21T18:46:43.518Z,96.56
2022-09-21T18:49:43.350Z,96.22
2022-09-21T18:52:22.051Z,97.03
2022-09-21T18:54:51.517Z,95.93
2022-09-21T18:57:22.557Z,96.57
2022-09-21T18:59:52.202Z,97.52
2022-09-21T19:02:21.789Z,97.19
2022-09-21T19:04:51.330Z,97.06
2022-09-21T19:07:36.333Z,97.67
2022-09-21T19:10:18.682Z,98.24
2022-09-21T19:12:51.560Z,98.53
2022-09-21T19:15:58.506Z,98.06
2022-09-21T19:18:19.986Z,97.90
2022-09-21T19:20:53.130Z,97.98
2022-09-21T19:23:38.247Z,99.97
2022-09-21T19:26:27.564Z,99.66
2022-09-21T19:29:00.006Z,99.53
2022-09-21T19:31:29.675Z,98.62
2022-09-21T19:33:59.261Z,98.30
2022-09-21T19:36:30.479Z,98.11
2022-09-21T19:39:00.214Z,99.38
2022-09-21T19:41:54.037Z,99.08
2022-09-21T19:44:31.000Z,100.00
2022-09-21T19:47:12.368Z,99.98
2022-09-21T19:49:50.437Z,100.00
2022-09-21T19:52:20.743Z,100.00
2022-09-21T19:55:08.824Z,98.96
2022-09-21T19:57:56.665Z,99.01
2022-09-21T20:00:28.190Z,98.52
2022-09-21T20:03:30.622Z,99.89
2022-09-21T20:06:16.093Z,99.72
2022-09-21T20:09:04.779Z,100.00
2022-09-21T20:11:37.256Z,100.00
2022-09-21T20:14:24.126Z,100.00
2022-09-21T20:17:02.145Z,100.00
2022-09-21T20:19:46.735Z,100.00
2022-09-21T20:22:19.320Z,100.00
2022-09-21T20:25:01.357Z,100.00
2022-09-21T20:27:36.825Z,100.00
2022-09-21T20:30:08.992Z,100.00
2022-09-21T20:32:40.203Z,100.00
2022-09-21T20:35:16.399Z,100.00
2022-09-21T20:37:46.144Z,100.00
2022-09-21T20:40:16.287Z,100.00
2022-09-21T20:42:45.673Z,100.00
2022-09-21T20:45:15.469Z,100.00
2022-09-21T20:47:44.841Z,100.00
2022-09-21T20:50:14.067Z,100.00
2022-09-21T20:52:45.263Z,100.00
2022-09-21T20:55:17.318Z,100.00
2022-09-21T20:57:47.039Z,100.00
2022-09-21T21:00:17.196Z,100.00
2022-09-21T21:02:46.670Z,100.00
2022-09-21T21:05:17.688Z,100.00
2022-09-21T21:07:47.163Z,100.00
2022-09-21T21:10:18.081Z,100.00
2022-09-21T21:12:47.570Z,100.00
2022-09-21T21:15:16.924Z,100.00
2022-09-21T21:17:48.727Z,100.00
2022-09-21T21:20:18.610Z,100.00
2022-09-21T21:22:50.259Z,100.00
2022-09-21T21:25:19.944Z,100.00
2022-09-21T21:27:49.369Z,100.00
2022-09-21T21:30:18.753Z,100.00
2022-09-21T21:32:49.894Z,100.00
2022-09-21T21:35:19.212Z,100.00
2022-09-21T21:37:48.831Z,100.00
2022-09-21T21:40:18.908Z,100.00
2022-09-21T21:42:48.734Z,100.00
2022-09-21T21:45:18.344Z,100.00
2022-09-21T21:47:47.772Z,100.00
2022-09-21T21:50:17.220Z,100.00
2022-09-21T21:52:46.486Z,100.00
2022-09-21T21:55:15.910Z,100.00
2022-09-21T21:57:45.850Z,100.00
2022-09-21T22:00:15.441Z,100.00
2022-09-21T22:02:44.700Z,100.00
2022-09-21T22:05:14.009Z,100.00
2022-09-21T22:07:43.472Z,100.00
2022-09-21T22:10:13.267Z,100.00
2022-09-21T22:12:42.885Z,100.00
2022-09-21T22:15:12.624Z,100.00
2022-09-21T22:17:42.079Z,100.00
2022-09-21T22:20:15.901Z,100.00
2022-09-21T22:22:49.899Z,100.00
2022-09-21T22:25:19.296Z,100.00
2022-09-21T22:27:48.721Z,100.00
2022-09-21T22:30:18.015Z,100.00
2022-09-21T22:32:47.472Z,100.00
2022-09-21T22:35:17.466Z,100.00
2022-09-21T22:37:46.822Z,100.00
2022-09-21T22:40:16.809Z,100.00
2022-09-21T22:42:47.485Z,100.00
2022-09-21T22:45:16.782Z,100.00
2022-09-21T22:47:46.654Z,100.00
2022-09-21T22:50:15.986Z,100.00
2022-09-21T22:52:45.648Z,100.00
2022-09-21T22:55:15.061Z,100.00
2022-09-21T22:57:44.340Z,100.00
2022-09-21T23:00:14.598Z,100.00
2022-09-21T23:02:45.048Z,100.00
2022-09-21T23:05:14.310Z,100.00
2022-09-21T23:07:43.768Z,100.00
2022-09-21T23:10:14.431Z,100.00
2022-09-21T23:12:43.654Z,100.00
2022-09-21T23:15:15.476Z,100.00
2022-09-21T23:17:44.749Z,100.00
2022-09-21T23:20:15.840Z,100.00
2022-09-21T23:22:45.164Z,100.00
2022-09-21T23:25:14.636Z,100.00
2022-09-21T23:27:43.867Z,100.00
2022-09-21T23:30:13.431Z,100.00
2022-09-21T23:32:42.757Z,100.00
2022-09-21T23:35:12.163Z,100.00
2022-09-21T23:37:41.639Z,100.00
2022-09-21T23:40:11.643Z,100.00
2022-09-21T23:42:41.036Z,100.00
2022-09-21T23:45:10.471Z,100.00
2022-09-21T23:47:39.809Z,100.00
2022-09-21T23:50:10.145Z,100.00
2022-09-21T23:52:39.651Z,100.00
2022-09-21T23:55:10.066Z,100.00
2022-09-21T23:57:39.501Z,100.00
